createdAt,value
2023-11-03T00:00:37.700Z,91.64
2023-11-03T00:03:07.951Z,90.54
2023-11-03T00:05:38.420Z,88.54
2023-11-03T00:08:05.829Z,88.25
2023-11-03T00:10:33.010Z,89.61
2023-11-03T00:13:03.484Z,89.74
2023-11-03T00:15:30.771Z,89.19
2023-11-03T00:17:58.153Z,89.71
2023-11-03T00:20:25.155Z,89.10
2023-11-03T00:22:52.039Z,89.87
2023-11-03T00:25:19.032Z,90.67
2023-11-03T00:27:47.975Z,89.92
2023-11-03T00:30:15.563Z,88.21
2023-11-03T00:32:43.014Z,87.01
2023-11-03T00:35:12.459Z,85.88
2023-11-03T00:37:40.615Z,86.97
2023-11-03T00:40:10.185Z,85.02
2023-11-03T00:42:37.125Z,85.13
2023-11-03T00:45:04.220Z,86.12
2023-11-03T00:47:31.907Z,86.05
2023-11-03T00:49:59.126Z,86.25
2023-11-03T00:52:27.059Z,87.42
2023-11-03T00:54:54.952Z,88.08
2023-11-03T00:57:22.061Z,86.49
2023-11-03T00:59:50.843Z,85.31
2023-11-03T01:02:18.840Z,83.65
2023-11-03T01:04:46.537Z,84.61
2023-11-03T01:07:13.673Z,84.60
2023-11-03T01:09:40.652Z,84.93
2023-11-03T01:12:08.333Z,85.16
2023-11-03T01:14:35.550Z,85.76
2023-11-03T01:17:04.014Z,86.03
2023-11-03T01:19:32.498Z,86.18
2023-11-03T01:22:01.082Z,87.33
2023-11-03T01:24:28.326Z,87.56
2023-11-03T01:26:55.389Z,88.33
2023-11-03T01:29:22.863Z,87.48
2023-11-03T01:31:50.107Z,87.45
2023-11-03T01:34:17.382Z,89.25
2023-11-03T01:36:44.563Z,89.61
2023-11-03T01:39:11.734Z,86.37
2023-11-03T01:41:38.986Z,86.17
2023-11-03T01:44:07.801Z,89.16
2023-11-03T01:46:37.006Z,90.65
2023-11-03T01:49:06.760Z,88.16
2023-11-03T01:51:38.008Z,86.90
2023-11-03T01:54:05.548Z,88.93
2023-11-03T01:56:36.076Z,87.48
2023-11-03T01:59:06.797Z,88.37
2023-11-03T02:01:36.365Z,88.44
2023-11-03T02:04:04.038Z,88.03
2023-11-03T02:06:31.316Z,88.79
2023-11-03T02:08:58.212Z,89.97
2023-11-03T02:11:30.231Z,90.43
2023-11-03T02:13:58.546Z,91.19
2023-11-03T02:16:26.319Z,90.96
2023-11-03T02:18:53.775Z,90.99
2023-11-03T02:21:20.769Z,91.28
2023-11-03T02:23:47.760Z,90.99
2023-11-03T02:26:14.599Z,90.87
2023-11-03T02:28:41.862Z,91.00
2023-11-03T02:31:08.924Z,91.29
2023-11-03T02:33:35.929Z,92.00
2023-11-03T02:36:05.083Z,92.11
2023-11-03T02:38:32.000Z,92.34
2023-11-03T02:40:58.893Z,92.03
2023-11-03T02:43:26.038Z,92.21
2023-11-03T02:45:53.002Z,92.64
2023-11-03T02:48:20.014Z,91.43
2023-11-03T02:50:47.223Z,91.33
2023-11-03T02:53:14.351Z,91.53
2023-11-03T02:55:41.313Z,91.56
2023-11-03T02:58:08.702Z,91.65
2023-11-03T03:00:38.840Z,91.87
2023-11-03T03:03:07.190Z,92.09
2023-11-03T03:05:35.193Z,92.70
2023-11-03T03:08:02.662Z,93.04
2023-11-03T03:10:29.989Z,92.87
2023-11-03T03:12:57.405Z,93.15
2023-11-03T03:15:24.528Z,93.36
2023-11-03T03:17:52.246Z,93.30
2023-11-03T03:20:19.253Z,93.21
2023-11-03T03:22:46.260Z,93.24
2023-11-03T03:25:13.822Z,93.16
2023-11-03T03:27:40.734Z,93.68
2023-11-03T03:30:08.397Z,93.97
2023-11-03T03:32:35.404Z,94.19
2023-11-03T03:35:02.507Z,94.75
2023-11-03T03:37:32.850Z,94.86
2023-11-03T03:40:00.170Z,95.40
2023-11-03T03:42:27.192Z,95.43
2023-11-03T03:44:54.116Z,95.28
2023-11-03T03:47:21.104Z,95.74
2023-11-03T03:49:48.078Z,95.92
2023-11-03T03:52:15.561Z,95.75
2023-11-03T03:54:42.595Z,96.25
2023-11-03T03:57:09.564Z,95.13
2023-11-03T03:59:36.524Z,94.59
2023-11-03T04:02:04.528Z,94.66
2023-11-03T04:04:31.453Z,94.56
2023-11-03T04:06:58.525Z,94.33
2023-11-03T04:09:26.214Z,94.63
2023-11-03T04:11:53.088Z,95.13
2023-11-03T04:14:20.201Z,95.09
2023-11-03T04:16:47.178Z,94.82
2023-11-03T04:19:14.312Z,94.86
2023-11-03T04:21:43.709Z,94.84
2023-11-03T04:24:10.886Z,95.20
2023-11-03T04:26:37.881Z,95.17
2023-11-03T04:29:05.018Z,95.40
2023-11-03T04:31:31.926Z,95.46
2023-11-03T04:33:59.036Z,95.51
2023-11-03T04:36:26.067Z,95.64
2023-11-03T04:38:53.100Z,95.89
2023-11-03T04:41:20.001Z,95.80
2023-11-03T04:43:47.872Z,96.13
2023-11-03T04:46:14.908Z,95.76
2023-11-03T04:48:41.817Z,95.87
2023-11-03T04:51:09.682Z,95.84
2023-11-03T04:53:36.649Z,95.77
2023-11-03T04:56:03.820Z,95.87
2023-11-03T04:58:30.823Z,96.30
2023-11-03T05:00:57.745Z,95.73
2023-11-03T05:03:24.741Z,96.06
2023-11-03T05:05:51.796Z,96.16
2023-11-03T05:08:18.600Z,96.46
2023-11-03T05:10:45.495Z,96.75
2023-11-03T05:13:12.438Z,96.62
2023-11-03T05:15:40.563Z,96.58
2023-11-03T05:18:07.673Z,96.94
2023-11-03T05:20:34.764Z,96.59
2023-11-03T05:23:02.406Z,96.29
2023-11-03T05:25:29.364Z,96.80
2023-11-03T05:27:56.508Z,96.85
2023-11-03T05:30:23.952Z,96.27
2023-11-03T05:32:51.049Z,96.60
2023-11-03T05:35:18.160Z,96.72
2023-11-03T05:37:46.856Z,96.91
2023-11-03T05:40:15.388Z,97.16
2023-11-03T05:42:42.630Z,97.17
2023-11-03T05:45:10.130Z,97.46
2023-11-03T05:47:37.099Z,97.49
2023-11-03T05:50:06.188Z,97.72
2023-11-03T05:52:33.662Z,97.37
2023-11-03T05:55:00.706Z,97.70
2023-11-03T05:57:27.757Z,97.70
2023-11-03T05:59:54.662Z,97.67
2023-11-03T06:02:21.602Z,97.62
2023-11-03T06:04:48.541Z,97.67
2023-11-03T06:07:17.110Z,97.66
2023-11-03T06:09:44.117Z,97.89
2023-11-03T06:12:12.323Z,97.71
2023-11-03T06:14:39.291Z,97.44
2023-11-03T06:17:06.990Z,97.25
2023-11-03T06:19:35.335Z,96.85
2023-11-03T06:22:02.687Z,96.75
2023-11-03T06:24:29.814Z,96.60
2023-11-03T06:27:00.563Z,96.82
2023-11-03T06:29:28.468Z,97.09
2023-11-03T06:31:55.738Z,96.97
2023-11-03T06:34:22.852Z,97.19
2023-11-03T06:36:50.069Z,97.07
2023-11-03T06:39:23.932Z,97.24
2023-11-03T06:41:51.644Z,97.85
2023-11-03T06:44:18.559Z,97.90
2023-11-03T06:46:45.469Z,98.43
2023-11-03T06:49:13.974Z,98.18
2023-11-03T06:51:47.774Z,98.68
2023-11-03T06:54:14.794Z,98.47
2023-11-03T06:56:43.414Z,98.60
2023-11-03T06:59:10.524Z,98.52
2023-11-03T07:01:37.602Z,98.83
2023-11-03T07:04:05.665Z,98.81
2023-11-03T07:06:32.952Z,99.01
2023-11-03T07:08:59.864Z,99.12
2023-11-03T07:11:26.988Z,98.45
2023-11-03T07:13:53.849Z,98.72
2023-11-03T07:16:21.291Z,98.23
2023-11-03T07:18:49.378Z,97.80
2023-11-03T07:21:17.273Z,98.33
2023-11-03T07:23:44.348Z,98.66
2023-11-03T07:26:14.769Z,98.05
2023-11-03T07:28:46.917Z,98.25
2023-11-03T07:31:14.552Z,98.00
2023-11-03T07:33:43.028Z,97.87
2023-11-03T07:36:11.480Z,97.29
2023-11-03T07:38:39.016Z,97.43
2023-11-03T07:41:09.366Z,97.54
2023-11-03T07:43:39.802Z,97.47
2023-11-03T07:46:07.661Z,97.81
2023-11-03T07:48:34.911Z,97.45
2023-11-03T07:51:03.400Z,97.12
2023-11-03T07:53:30.480Z,97.52
2023-11-03T07:55:57.430Z,97.22
2023-11-03T07:58:24.362Z,96.89
2023-11-03T08:00:51.501Z,96.96
2023-11-03T08:03:19.218Z,96.13
2023-11-03T08:05:47.005Z,95.69
2023-11-03T08:08:16.541Z,95.88
2023-11-03T08:10:43.722Z,95.95
2023-11-03T08:13:11.236Z,95.60
2023-11-03T08:15:38.436Z,95.10
2023-11-03T08:18:09.416Z,95.41
2023-11-03T08:20:36.347Z,95.62
2023-11-03T08:23:03.389Z,95.15
2023-11-03T08:25:33.438Z,94.84
2023-11-03T08:28:00.603Z,94.85
2023-11-03T08:30:28.513Z,95.02
2023-11-03T08:32:55.994Z,94.15
2023-11-03T08:35:23.764Z,94.21
2023-11-03T08:37:55.328Z,94.00
2023-11-03T08:40:23.505Z,94.09
2023-11-03T08:42:51.100Z,94.07
2023-11-03T08:45:21.185Z,94.26
2023-11-03T08:47:49.197Z,93.58
2023-11-03T08:50:17.461Z,94.04
2023-11-03T08:52:46.400Z,94.32
2023-11-03T08:55:14.269Z,94.27
2023-11-03T08:57:42.431Z,93.73
2023-11-03T09:00:12.704Z,93.66
2023-11-03T09:02:43.125Z,93.96
2023-11-03T09:05:14.045Z,94.09
2023-11-03T09:07:42.161Z,94.27
2023-11-03T09:10:13.920Z,94.25
2023-11-03T09:12:44.030Z,94.15
2023-11-03T09:15:11.838Z,94.00
2023-11-03T09:17:39.454Z,93.72
2023-11-03T09:20:08.295Z,93.79
2023-11-03T09:22:37.192Z,93.62
2023-11-03T09:25:07.495Z,92.90
2023-11-03T09:27:35.240Z,93.00
2023-11-03T09:30:06.503Z,92.97
2023-11-03T09:32:33.773Z,93.36
2023-11-03T09:35:01.078Z,93.37
2023-11-03T09:37:28.282Z,93.44
2023-11-03T09:39:56.068Z,93.66
2023-11-03T09:42:24.319Z,93.76
2023-11-03T09:44:52.093Z,93.96
2023-11-03T09:47:19.230Z,93.86
2023-11-03T09:49:47.236Z,93.68
2023-11-03T09:52:17.818Z,93.76
2023-11-03T09:54:45.960Z,93.70
2023-11-03T09:57:13.538Z,93.43
2023-11-03T09:59:41.891Z,93.10
2023-11-03T10:02:21.874Z,93.25
2023-11-03T10:04:49.039Z,93.26
2023-11-03T10:07:18.072Z,93.48
2023-11-03T10:09:45.208Z,93.44
2023-11-03T10:12:16.599Z,93.41
2023-11-03T10:14:45.247Z,92.73
2023-11-03T10:17:12.597Z,92.29
2023-11-03T10:19:39.867Z,91.50
2023-11-03T10:22:10.611Z,91.52
2023-11-03T10:24:40.131Z,91.91
2023-11-03T10:27:08.157Z,91.54
2023-11-03T10:29:35.920Z,91.63
2023-11-03T10:32:03.591Z,91.68
2023-11-03T10:34:30.913Z,91.53
2023-11-03T10:36:58.864Z,91.69
2023-11-03T10:39:26.563Z,91.84
2023-11-03T10:41:56.464Z,91.63
2023-11-03T10:44:31.720Z,91.50
2023-11-03T10:47:02.762Z,91.49
2023-11-03T10:49:34.493Z,91.65
2023-11-03T10:52:13.368Z,91.65
2023-11-03T10:55:01.887Z,91.17
2023-11-03T10:57:39.802Z,90.96
2023-11-03T11:00:23.543Z,90.81
2023-11-03T11:03:13.293Z,91.14
2023-11-03T11:05:46.045Z,91.12
2023-11-03T11:08:18.447Z,92.03
2023-11-03T11:10:47.055Z,92.50
2023-11-03T11:13:20.706Z,92.33
2023-11-03T11:16:06.475Z,92.62
2023-11-03T11:18:52.787Z,92.77
2023-11-03T11:21:35.949Z,93.18
2023-11-03T11:24:05.868Z,92.50
2023-11-03T11:26:36.496Z,92.41
2023-11-03T11:29:05.029Z,92.32
2023-11-03T11:31:33.016Z,92.58
2023-11-03T11:34:02.615Z,93.13
2023-11-03T11:36:32.732Z,92.85
2023-11-03T11:39:18.547Z,92.95
2023-11-03T11:42:01.187Z,92.49
2023-11-03T11:44:31.730Z,92.15
2023-11-03T11:47:02.429Z,92.28
2023-11-03T11:49:32.728Z,92.10
2023-11-03T11:52:01.733Z,92.48
2023-11-03T11:54:29.684Z,92.50
2023-11-03T11:56:57.206Z,93.11
2023-11-03T11:59:25.510Z,93.24
2023-11-03T12:01:53.965Z,93.39
2023-11-03T12:04:22.750Z,93.53
2023-11-03T12:06:53.190Z,93.92
2023-11-03T12:09:22.419Z,94.11
2023-11-03T12:11:49.665Z,93.46
2023-11-03T12:14:16.587Z,93.22
2023-11-03T12:16:43.708Z,93.92
2023-11-03T12:19:15.128Z,94.26
2023-11-03T12:21:49.773Z,95.00
2023-11-03T12:24:16.718Z,94.71
2023-11-03T12:26:43.797Z,94.70
2023-11-03T12:29:37.444Z,94.69
2023-11-03T12:32:06.448Z,94.56
2023-11-03T12:34:35.271Z,94.67
2023-11-03T12:37:08.643Z,94.58
2023-11-03T12:40:08.452Z,94.80
2023-11-03T12:42:43.518Z,94.70
2023-11-03T12:45:12.671Z,94.48
2023-11-03T12:47:55.158Z,94.93
2023-11-03T12:50:24.724Z,95.01
2023-11-03T12:52:57.351Z,95.10
2023-11-03T12:55:26.800Z,95.14
2023-11-03T12:57:58.761Z,95.37
2023-11-03T13:00:29.065Z,95.57
2023-11-03T13:02:56.543Z,95.67
2023-11-03T13:05:24.941Z,95.73
2023-11-03T13:07:56.246Z,95.45
2023-11-03T13:10:25.165Z,95.78
2023-11-03T13:12:52.733Z,96.01
2023-11-03T13:15:20.655Z,95.30
2023-11-03T13:17:50.385Z,95.58
2023-11-03T13:20:23.391Z,95.90
2023-11-03T13:23:08.683Z,96.16
2023-11-03T13:25:38.285Z,96.44
2023-11-03T13:28:05.701Z,96.26
2023-11-03T13:30:32.734Z,96.59
2023-11-03T13:32:59.985Z,96.75
2023-11-03T13:35:27.575Z,96.58
2023-11-03T13:37:57.735Z,96.91
2023-11-03T13:40:27.142Z,96.73
2023-11-03T13:42:56.035Z,96.94
2023-11-03T13:45:25.609Z,97.31
2023-11-03T13:48:00.323Z,97.85
2023-11-03T13:50:31.023Z,97.93
2023-11-03T13:52:58.021Z,98.00
2023-11-03T13:55:28.213Z,98.20
2023-11-03T13:58:01.497Z,98.42
2023-11-03T14:00:29.199Z,98.71
2023-11-03T14:02:56.117Z,98.62
2023-11-03T14:05:23.238Z,98.29
2023-11-03T14:07:51.795Z,97.89
2023-11-03T14:10:20.540Z,98.41
2023-11-03T14:12:49.374Z,98.74
2023-11-03T14:15:19.762Z,99.00
2023-11-03T14:17:47.152Z,98.84
2023-11-03T14:20:16.102Z,98.57
2023-11-03T14:22:44.085Z,98.52
2023-11-03T14:25:13.421Z,98.82
2023-11-03T14:27:42.155Z,98.69
2023-11-03T14:30:13.145Z,98.51
2023-11-03T14:32:46.880Z,98.63
2023-11-03T14:35:14.258Z,98.84
2023-11-03T14:37:44.803Z,98.58
2023-11-03T14:40:16.985Z,98.75
2023-11-03T14:42:48.730Z,98.66
2023-11-03T14:45:21.606Z,99.09
2023-11-03T14:47:55.560Z,98.96
2023-11-03T14:50:22.525Z,98.86
2023-11-03T14:52:49.627Z,99.34
2023-11-03T14:55:22.810Z,99.78
2023-11-03T14:57:52.740Z,99.69
2023-11-03T15:00:22.105Z,99.77
2023-11-03T15:02:50.874Z,99.82
2023-11-03T15:05:18.073Z,99.79
2023-11-03T15:07:45.270Z,99.91
2023-11-03T15:10:15.347Z,100.00
2023-11-03T15:12:45.548Z,100.00
2023-11-03T15:15:14.542Z,100.00
2023-11-03T15:17:41.778Z,100.00
2023-11-03T15:20:16.037Z,99.83
2023-11-03T15:22:43.476Z,99.57
2023-11-03T15:25:15.586Z,99.29
2023-11-03T15:27:44.182Z,98.70
2023-11-03T15:30:12.439Z,98.88
2023-11-03T15:32:43.137Z,99.22
2023-11-03T15:35:10.424Z,99.51
2023-11-03T15:37:37.634Z,99.14
2023-11-03T15:40:13.555Z,99.31
2023-11-03T15:42:40.634Z,99.20
2023-11-03T15:45:10.884Z,99.53
2023-11-03T15:47:37.779Z,99.48
2023-11-03T15:50:05.511Z,99.47
2023-11-03T15:52:35.200Z,99.23
2023-11-03T15:55:03.112Z,99.58
2023-11-03T15:57:30.805Z,99.66
2023-11-03T15:59:59.638Z,99.74
2023-11-03T16:02:26.713Z,100.00
2023-11-03T16:04:54.607Z,100.00
2023-11-03T16:07:22.015Z,100.00
2023-11-03T16:09:51.788Z,100.00
2023-11-03T16:12:19.005Z,100.00
2023-11-03T16:14:46.850Z,100.00
2023-11-03T16:17:13.979Z,100.00
2023-11-03T16:19:40.860Z,100.00
2023-11-03T16:22:09.073Z,100.00
2023-11-03T16:24:35.950Z,100.00
2023-11-03T16:27:03.013Z,100.00
2023-11-03T16:29:30.081Z,100.00
2023-11-03T16:31:58.144Z,100.00
2023-11-03T16:34:27.553Z,100.00
2023-11-03T16:37:01.534Z,100.00
2023-11-03T16:39:32.561Z,100.00
2023-11-03T16:42:00.888Z,100.00
2023-11-03T16:44:28.811Z,100.00
2023-11-03T16:46:55.908Z,100.00
2023-11-03T16:49:24.017Z,100.00
2023-11-03T16:51:53.431Z,100.00
2023-11-03T16:54:20.772Z,100.00
2023-11-03T16:56:48.106Z,100.00
2023-11-03T16:59:15.149Z,100.00
2023-11-03T17:01:42.049Z,100.00
2023-11-03T17:04:10.082Z,100.00
2023-11-03T17:06:37.197Z,100.00
2023-11-03T17:09:04.313Z,100.00
2023-11-03T17:11:31.335Z,100.00
2023-11-03T17:13:58.253Z,100.00
2023-11-03T17:16:28.054Z,100.00
2023-11-03T17:18:54.988Z,100.00
2023-11-03T17:21:22.087Z,100.00
2023-11-03T17:23:50.895Z,100.00
2023-11-03T17:26:17.935Z,100.00
2023-11-03T17:28:45.586Z,100.00
2023-11-03T17:31:14.267Z,100.00
2023-11-03T17:33:46.847Z,100.00
2023-11-03T17:36:13.991Z,100.00
2023-11-03T17:38:40.921Z,100.00
2023-11-03T17:41:08.174Z,100.00
2023-11-03T17:43:35.169Z,100.00
2023-11-03T17:46:03.505Z,100.00
2023-11-03T17:48:30.817Z,100.00
2023-11-03T17:50:59.050Z,100.00
2023-11-03T17:53:26.173Z,100.00
2023-11-03T17:55:55.396Z,100.00
2023-11-03T17:58:22.695Z,100.00
2023-11-03T18:00:49.982Z,100.00
2023-11-03T18:03:17.000Z,100.00
2023-11-03T18:05:44.840Z,100.00
2023-11-03T18:08:12.913Z,100.00
2023-11-03T18:10:39.962Z,100.00
2023-11-03T18:13:08.262Z,100.00
2023-11-03T18:15:35.798Z,100.00
2023-11-03T18:18:04.764Z,100.00
2023-11-03T18:20:38.177Z,100.00
2023-11-03T18:23:09.159Z,100.00
2023-11-03T18:25:37.009Z,100.00
2023-11-03T18:28:04.569Z,100.00
2023-11-03T18:30:34.508Z,100.00
2023-11-03T18:33:01.928Z,100.00
2023-11-03T18:35:29.053Z,100.00
2023-11-03T18:37:56.316Z,100.00
2023-11-03T18:40:23.931Z,100.00
2023-11-03T18:42:51.707Z,100.00
2023-11-03T18:45:19.021Z,100.00
2023-11-03T18:47:46.394Z,100.00
2023-11-03T18:52:45.877Z,100.00
2023-11-03T18:56:06.139Z,100.00
2023-11-03T19:07:09.560Z,100.00
2023-11-03T19:08:23.920Z,100.00
2023-11-03T19:10:51.158Z,100.00
2023-11-03T19:13:19.440Z,100.00
2023-11-03T19:15:46.792Z,100.00
2023-11-03T19:18:13.924Z,100.00
2023-11-03T19:20:41.382Z,100.00
2023-11-03T19:23:08.936Z,100.00
2023-11-03T19:25:38.130Z,100.00
2023-11-03T19:28:08.251Z,100.00
2023-11-03T19:30:37.352Z,100.00
2023-11-03T19:33:05.738Z,100.00
2023-11-03T19:35:36.972Z,100.00
2023-11-03T19:38:03.899Z,100.00
2023-11-03T19:40:33.778Z,100.00
2023-11-03T19:43:01.248Z,100.00
2023-11-03T19:45:28.246Z,100.00
2023-11-03T19:47:58.560Z,100.00
2023-11-03T19:50:26.118Z,100.00
2023-11-03T19:52:53.303Z,100.00
2023-11-03T19:55:20.716Z,100.00
2023-11-03T19:57:48.010Z,100.00
2023-11-03T20:00:15.708Z,100.00
2023-11-03T20:02:42.776Z,100.00
2023-11-03T20:05:12.106Z,100.00
2023-11-03T20:07:39.026Z,100.00
2023-11-03T20:10:07.517Z,100.00
2023-11-03T20:12:37.885Z,100.00
2023-11-03T20:15:05.084Z,100.00
2023-11-03T20:17:32.803Z,100.00
2023-11-03T20:20:00.145Z,100.00
2023-11-03T20:22:29.617Z,100.00
2023-11-03T20:24:57.011Z,100.00
2023-11-03T20:27:23.969Z,100.00
2023-11-03T20:29:51.326Z,100.00
2023-11-03T20:32:18.245Z,100.00
2023-11-03T20:34:45.214Z,100.00
2023-11-03T20:37:12.104Z,100.00
2023-11-03T20:39:40.077Z,100.00
2023-11-03T20:42:08.012Z,100.00
2023-11-03T20:44:35.230Z,100.00
2023-11-03T20:47:02.563Z,100.00
2023-11-03T20:49:29.420Z,100.00
2023-11-03T20:52:00.336Z,100.00
2023-11-03T20:54:29.271Z,100.00
2023-11-03T20:56:56.340Z,100.00
2023-11-03T20:59:24.205Z,100.00
2023-11-03T21:01:52.241Z,100.00
2023-11-03T21:04:21.184Z,100.00
2023-11-03T21:06:48.558Z,100.00
2023-11-03T21:09:18.235Z,100.00
2023-11-03T21:11:45.088Z,100.00
2023-11-03T21:14:13.314Z,100.00
2023-11-03T21:16:40.481Z,100.00
2023-11-03T21:19:07.683Z,100.00
2023-11-03T21:21:34.942Z,100.00
2023-11-03T21:24:02.840Z,100.00
2023-11-03T21:26:29.721Z,100.00
2023-11-03T21:28:57.469Z,100.00
2023-11-03T21:31:26.319Z,100.00
2023-11-03T21:33:53.315Z,100.00
2023-11-03T21:36:25.678Z,100.00
2023-11-03T21:38:59.021Z,100.00
2023-11-03T21:41:26.206Z,100.00
2023-11-03T21:43:53.873Z,100.00
2023-11-03T21:46:28.205Z,100.00
2023-11-03T21:48:55.222Z,100.00
2023-11-03T21:51:22.299Z,100.00
2023-11-03T21:53:49.354Z,100.00
2023-11-03T21:56:16.373Z,100.00
2023-11-03T21:58:43.828Z,100.00
2023-11-03T22:01:11.490Z,100.00
2023-11-03T22:03:38.836Z,100.00
2023-11-03T22:06:07.367Z,100.00
2023-11-03T22:08:34.756Z,100.00
2023-11-03T22:11:01.800Z,100.00
2023-11-03T22:13:29.993Z,100.00
2023-11-03T22:15:58.906Z,100.00
2023-11-03T22:18:25.868Z,100.00
2023-11-03T22:20:54.589Z,100.00
2023-11-03T22:23:21.866Z,100.00
2023-11-03T22:25:49.036Z,100.00
2023-11-03T22:28:15.973Z,100.00
2023-11-03T22:30:43.105Z,100.00
2023-11-03T22:33:12.678Z,100.00
2023-11-03T22:35:40.059Z,100.00
2023-11-03T22:38:06.948Z,100.00
2023-11-03T22:40:33.788Z,100.00
2023-11-03T22:43:00.694Z,100.00
2023-11-03T22:45:27.669Z,100.00
2023-11-03T22:47:55.362Z,100.00
2023-11-03T22:50:22.262Z,100.00
2023-11-03T22:52:49.136Z,100.00
2023-11-03T22:55:16.129Z,100.00
2023-11-03T22:57:43.087Z,100.00
2023-11-03T23:00:12.708Z,100.00
2023-11-03T23:02:43.251Z,100.00
2023-11-03T23:05:10.275Z,100.00
2023-11-03T23:07:37.314Z,100.00
2023-11-03T23:10:04.515Z,100.00
2023-11-03T23:12:33.212Z,100.00
2023-11-03T23:15:00.137Z,100.00
2023-11-03T23:17:27.069Z,100.00
2023-11-03T23:19:53.923Z,100.00
2023-11-03T23:22:22.028Z,100.00
2023-11-03T23:24:50.484Z,100.00
2023-11-03T23:27:17.494Z,100.00
2023-11-03T23:29:44.328Z,100.00
2023-11-03T23:32:11.193Z,100.00
2023-11-03T23:34:38.209Z,100.00
2023-11-03T23:37:05.564Z,100.00
2023-11-03T23:39:34.282Z,100.00
2023-11-03T23:42:03.371Z,100.00
2023-11-03T23:44:30.291Z,100.00
2023-11-03T23:46:57.240Z,100.00
2023-11-03T23:49:24.279Z,100.00
2023-11-03T23:51:51.271Z,100.00
2023-11-03T23:54:18.278Z,100.00
2023-11-03T23:56:45.149Z,100.00
2023-11-03T23:59:12.563Z,100.00
